Panola, Oklahoma
Current Conditions -  °F | °C
As of 7:55 AM on Thursday 18 Dec 2014 (Local Time) from KGZL Reporting Station
Haze Haze  
Wind Chill: 31°   Ceiling: 300
Heat Index: 37°   Visibility: 3mi
Dew Point: 36°   Wind: 8mph
Humidity: 93%   Direction: 110°ESE
Pressure: 30.2"   Gusts: NA
Location:  34.93°N, 95.21°W
Report Text: KGZL 181355Z AUTO 11007KT 3SM BR OVC003 03/02 A3020 RMK AO2
Loading
Personal Weather Stations






























Interactive Weather Map New forecast layout! Learn more

10-Day Weather Forecast

Advertisements
Track Severe Weather on mobile